createdAt,value
2023-01-19T00:01:31.362Z,17.15
2023-01-19T00:03:59.320Z,17.42
2023-01-19T00:06:27.269Z,17.63
2023-01-19T00:08:56.454Z,15.38
2023-01-19T00:11:24.367Z,16.73
2023-01-19T00:13:53.591Z,15.50
2023-01-19T00:16:23.290Z,19.25
2023-01-19T00:18:52.808Z,17.13
2023-01-19T00:21:21.606Z,17.48
2023-01-19T00:23:52.458Z,16.58
2023-01-19T00:26:23.022Z,16.45
2023-01-19T00:28:51.214Z,17.35
2023-01-19T00:31:21.472Z,14.85
2023-01-19T00:33:51.461Z,21.85
2023-01-19T00:36:20.119Z,14.23
2023-01-19T00:38:47.928Z,17.98
2023-01-19T00:41:15.707Z,15.05
2023-01-19T00:43:43.952Z,16.05
2023-01-19T00:46:11.930Z,14.23
2023-01-19T00:48:39.784Z,15.90
2023-01-19T00:51:07.580Z,14.48
2023-01-19T00:53:35.389Z,14.18
2023-01-19T00:56:03.157Z,12.27
2023-01-19T00:58:30.930Z,13.10
2023-01-19T01:01:03.666Z,11.18
2023-01-19T01:03:31.801Z,10.93
2023-01-19T01:05:59.696Z,12.30
2023-01-19T01:08:27.479Z,11.75
2023-01-19T01:10:56.265Z,11.07
2023-01-19T01:13:27.247Z,11.30
2023-01-19T01:15:56.874Z,10.15
2023-01-19T01:18:26.361Z,9.48
2023-01-19T01:20:56.208Z,11.23
2023-01-19T01:23:24.235Z,13.13
2023-01-19T01:25:52.064Z,10.73
2023-01-19T01:28:20.016Z,9.18
2023-01-19T01:30:47.907Z,10.43
2023-01-19T01:33:15.831Z,14.18
2023-01-19T01:36:05.748Z,13.35
2023-01-19T01:38:33.554Z,12.80
2023-01-19T01:41:01.323Z,11.60
2023-01-19T01:43:44.759Z,11.20
2023-01-19T01:46:15.393Z,13.38
2023-01-19T01:48:45.996Z,13.70
2023-01-19T01:51:27.379Z,11.20
2023-01-19T01:54:06.544Z,13.52
2023-01-19T01:56:38.420Z,11.25
2023-01-19T01:59:08.564Z,11.13
2023-01-19T02:02:05.744Z,12.00
2023-01-19T02:04:33.831Z,11.18
2023-01-19T02:07:20.576Z,11.75
2023-01-19T02:10:05.965Z,12.32
2023-01-19T02:12:51.290Z,12.20
2023-01-19T02:15:21.150Z,12.98
2023-01-19T02:17:50.583Z,14.82
2023-01-19T02:20:20.139Z,13.80
2023-01-19T02:22:50.998Z,17.30
2023-01-19T02:25:21.193Z,16.95
2023-01-19T02:27:50.105Z,13.85
2023-01-19T02:30:18.829Z,15.82
2023-01-19T02:32:46.957Z,16.17
2023-01-19T02:35:14.845Z,16.25
2023-01-19T02:37:44.725Z,15.05
2023-01-19T02:40:15.457Z,14.20
2023-01-19T02:42:47.797Z,16.85
2023-01-19T02:45:19.183Z,16.05
2023-01-19T02:47:49.176Z,16.50
2023-01-19T02:50:41.797Z,13.98
2023-01-19T02:56:01.696Z,14.10
2023-01-19T02:58:37.852Z,10.63
2023-01-19T03:01:15.276Z,11.07
2023-01-19T03:03:52.989Z,10.07
2023-01-19T03:06:31.070Z,12.75
2023-01-19T03:09:04.125Z,14.98
2023-01-19T03:11:47.544Z,11.80
2023-01-19T03:14:22.798Z,12.25
2023-01-19T03:16:55.930Z,16.20
2023-01-19T03:19:28.072Z,12.80
2023-01-19T03:21:59.380Z,11.68
2023-01-19T03:24:31.874Z,9.40
2023-01-19T03:27:03.699Z,13.05
2023-01-19T03:29:35.743Z,11.07
2023-01-19T03:32:09.668Z,10.32
2023-01-19T03:34:40.086Z,9.57
2023-01-19T03:37:11.325Z,10.57
2023-01-19T03:39:39.222Z,11.20
2023-01-19T03:42:10.838Z,7.85
2023-01-19T03:44:41.314Z,7.93
2023-01-19T03:47:12.305Z,9.40
2023-01-19T03:49:42.982Z,10.57
2023-01-19T03:52:11.204Z,10.18
2023-01-19T03:54:39.158Z,10.55
2023-01-19T03:57:07.034Z,10.00
2023-01-19T03:59:35.094Z,9.65
2023-01-19T04:02:04.311Z,9.38
2023-01-19T04:04:32.175Z,9.55
2023-01-19T04:07:00.048Z,8.82
2023-01-19T04:09:27.954Z,9.57
2023-01-19T04:11:56.457Z,12.52
2023-01-19T04:14:24.519Z,11.05
2023-01-19T04:16:52.348Z,13.27
2023-01-19T04:19:21.485Z,10.95
2023-01-19T04:21:50.713Z,10.45
2023-01-19T04:24:18.818Z,10.65
2023-01-19T04:26:46.634Z,9.93
2023-01-19T04:29:15.016Z,14.15
2023-01-19T04:31:42.790Z,9.68
2023-01-19T04:34:10.590Z,11.40
2023-01-19T04:36:39.735Z,11.40
2023-01-19T04:39:08.896Z,11.75
2023-01-19T04:41:36.699Z,13.30
2023-01-19T04:44:05.909Z,13.85
2023-01-19T04:46:33.836Z,10.20
2023-01-19T04:49:01.807Z,12.10
2023-01-19T04:51:29.683Z,11.88
2023-01-19T04:53:58.803Z,12.40
2023-01-19T04:56:26.721Z,13.07
2023-01-19T04:58:54.533Z,14.27
2023-01-19T05:01:23.038Z,13.05
2023-01-19T05:03:50.938Z,13.07
2023-01-19T05:06:18.792Z,12.40
2023-01-19T05:08:46.617Z,11.70
2023-01-19T05:11:15.740Z,11.98
2023-01-19T05:13:43.561Z,16.00
2023-01-19T05:16:12.025Z,12.88
2023-01-19T05:18:39.801Z,17.15
2023-01-19T05:21:08.578Z,17.42
2023-01-19T05:23:36.373Z,13.27
2023-01-19T05:26:04.552Z,13.23
2023-01-19T05:28:34.304Z,13.73
2023-01-19T05:31:02.376Z,15.10
2023-01-19T05:33:30.310Z,12.80
2023-01-19T05:35:58.254Z,15.40
2023-01-19T05:38:34.618Z,16.58
2023-01-19T05:41:03.126Z,14.85
2023-01-19T05:43:30.986Z,14.25
2023-01-19T05:46:00.116Z,13.93
2023-01-19T05:48:27.956Z,14.98
2023-01-19T05:50:58.909Z,15.98
2023-01-19T05:53:27.641Z,15.80
2023-01-19T05:55:59.674Z,17.25
2023-01-19T05:58:27.459Z,17.90
2023-01-19T06:00:55.272Z,18.30
2023-01-19T06:03:24.577Z,19.27
2023-01-19T06:05:52.411Z,18.70
2023-01-19T06:08:20.576Z,17.88
2023-01-19T06:10:48.398Z,17.33
2023-01-19T06:13:16.230Z,16.00
2023-01-19T06:15:44.951Z,18.25
2023-01-19T06:18:13.033Z,16.73
2023-01-19T06:20:42.199Z,13.80
2023-01-19T06:23:10.585Z,17.90
2023-01-19T06:25:38.464Z,16.20
2023-01-19T06:28:06.452Z,13.30
2023-01-19T06:30:34.327Z,18.70
2023-01-19T06:33:02.580Z,15.07
2023-01-19T06:35:30.738Z,15.30
2023-01-19T06:37:59.866Z,15.23
2023-01-19T06:40:27.658Z,15.63
2023-01-19T06:42:55.691Z,17.02
2023-01-19T06:45:23.449Z,17.40
2023-01-19T06:47:51.255Z,16.92
2023-01-19T06:50:19.219Z,18.42
2023-01-19T06:52:47.371Z,15.82
2023-01-19T06:55:16.877Z,14.38
2023-01-19T06:57:44.865Z,18.33
2023-01-19T07:00:14.796Z,17.02
2023-01-19T07:02:43.583Z,17.25
2023-01-19T07:05:14.359Z,15.43
2023-01-19T07:07:43.540Z,17.60
2023-01-19T07:10:13.041Z,17.15
2023-01-19T07:12:44.031Z,15.95
2023-01-19T07:15:12.527Z,19.63
2023-01-19T07:17:41.625Z,16.88
2023-01-19T07:20:12.967Z,15.07
2023-01-19T07:22:41.259Z,16.03
2023-01-19T07:25:09.804Z,16.30
2023-01-19T07:27:37.764Z,19.27
2023-01-19T07:30:08.279Z,17.67
2023-01-19T07:32:36.129Z,18.33
2023-01-19T07:35:04.147Z,18.15
2023-01-19T07:37:31.981Z,15.45
2023-01-19T07:39:59.791Z,16.80
2023-01-19T07:42:27.745Z,14.88
2023-01-19T07:44:55.651Z,18.05
2023-01-19T07:47:24.816Z,13.40
2023-01-19T07:49:53.150Z,14.57
2023-01-19T07:52:21.250Z,14.75
2023-01-19T07:54:50.849Z,17.35
2023-01-19T07:57:19.240Z,17.85
2023-01-19T07:59:47.068Z,15.57
2023-01-19T08:02:16.339Z,14.75
2023-01-19T08:04:49.072Z,14.10
2023-01-19T08:07:16.864Z,17.15
2023-01-19T08:09:44.967Z,15.10
2023-01-19T08:12:12.763Z,21.20
2023-01-19T08:14:40.576Z,15.57
2023-01-19T08:17:08.343Z,14.13
2023-01-19T08:19:36.151Z,14.57
2023-01-19T08:22:06.089Z,16.45
2023-01-19T08:24:33.885Z,20.95
2023-01-19T08:27:03.526Z,15.85
2023-01-19T08:29:31.939Z,14.07
2023-01-19T08:32:01.730Z,13.18
2023-01-19T08:34:30.901Z,14.13
2023-01-19T08:36:59.307Z,16.40
2023-01-19T08:39:28.598Z,15.80
2023-01-19T08:41:56.768Z,14.45
2023-01-19T08:44:24.561Z,15.10
2023-01-19T08:46:52.334Z,15.75
2023-01-19T08:49:20.476Z,17.35
2023-01-19T08:51:48.980Z,14.30
2023-01-19T08:54:18.552Z,12.98
2023-01-19T08:56:47.898Z,13.98
2023-01-19T08:59:16.836Z,13.68
2023-01-19T09:01:44.842Z,17.08
2023-01-19T09:04:12.769Z,15.25
2023-01-19T09:06:40.620Z,12.52
2023-01-19T09:09:08.405Z,13.75
2023-01-19T09:11:36.217Z,12.52
2023-01-19T09:14:05.971Z,13.52
2023-01-19T09:16:34.317Z,16.25
2023-01-19T09:19:02.299Z,15.30
2023-01-19T09:21:30.148Z,13.98
2023-01-19T09:23:57.961Z,13.35
2023-01-19T09:26:26.209Z,12.88
2023-01-19T09:28:54.005Z,12.20
2023-01-19T09:31:23.665Z,14.38
2023-01-19T09:33:51.533Z,11.07
2023-01-19T09:36:19.343Z,14.07
2023-01-19T09:38:47.161Z,13.18
2023-01-19T09:41:21.603Z,15.13
2023-01-19T09:43:53.741Z,12.10
2023-01-19T09:46:28.484Z,17.23
2023-01-19T09:48:58.445Z,14.00
2023-01-19T09:51:28.101Z,13.70
2023-01-19T09:54:06.818Z,14.18
2023-01-19T09:56:35.091Z,13.95
2023-01-19T09:59:04.522Z,15.00
2023-01-19T10:01:41.774Z,13.43
2023-01-19T10:04:35.849Z,11.73
2023-01-19T10:07:26.677Z,11.73
2023-01-19T10:10:17.438Z,11.85
2023-01-19T10:12:56.254Z,12.65
2023-01-19T10:15:35.361Z,11.68
2023-01-19T10:18:13.958Z,10.15
2023-01-19T10:20:45.779Z,13.02
2023-01-19T10:23:33.853Z,13.05
2023-01-19T10:26:07.933Z,12.43
2023-01-19T10:28:37.785Z,13.52
2023-01-19T10:31:07.610Z,11.35
2023-01-19T10:33:37.414Z,11.75
2023-01-19T10:36:06.872Z,10.43
2023-01-19T10:38:35.525Z,9.95
2023-01-19T10:41:07.992Z,12.07
2023-01-19T10:43:41.955Z,10.15
2023-01-19T10:46:22.947Z,8.70
2023-01-19T10:48:54.145Z,11.77
2023-01-19T10:51:22.544Z,10.70
2023-01-19T10:53:59.987Z,11.90
2023-01-19T10:56:31.638Z,10.52
2023-01-19T10:59:02.337Z,7.85
2023-01-19T11:01:35.874Z,10.25
2023-01-19T11:04:22.192Z,11.65
2023-01-19T11:06:50.071Z,8.52
2023-01-19T11:09:19.589Z,8.27
2023-01-19T11:11:50.777Z,8.15
2023-01-19T11:14:21.272Z,8.60
2023-01-19T11:16:52.222Z,9.82
2023-01-19T11:19:26.781Z,9.60
2023-01-19T11:22:08.575Z,10.88
2023-01-19T11:24:38.574Z,8.48
2023-01-19T11:27:06.454Z,8.27
2023-01-19T11:29:34.387Z,8.02
2023-01-19T11:32:12.619Z,10.10
2023-01-19T11:34:41.783Z,8.93
2023-01-19T11:37:29.029Z,7.45
2023-01-19T11:39:58.987Z,7.50
2023-01-19T11:42:29.140Z,7.03
2023-01-19T11:45:03.617Z,8.50
2023-01-19T11:47:37.652Z,7.80
2023-01-19T11:50:15.101Z,8.35
2023-01-19T11:52:46.921Z,7.28
2023-01-19T11:55:20.831Z,8.82
2023-01-19T11:57:53.448Z,8.13
2023-01-19T12:00:28.654Z,7.93
2023-01-19T12:03:01.897Z,7.00
2023-01-19T12:05:34.444Z,7.78
2023-01-19T12:08:07.005Z,6.38
2023-01-19T12:10:39.125Z,8.23
2023-01-19T12:13:07.001Z,8.57
2023-01-19T12:15:39.686Z,13.52
2023-01-19T12:18:15.540Z,17.67
2023-01-19T12:20:48.066Z,15.63
2023-01-19T12:23:26.007Z,17.20
2023-01-19T12:26:05.957Z,8.98
2023-01-19T12:28:38.006Z,6.10
2023-01-19T12:31:06.348Z,6.47
2023-01-19T12:33:36.138Z,5.32
2023-01-19T12:36:10.602Z,5.85
2023-01-19T12:38:48.537Z,5.97
2023-01-19T12:41:31.019Z,8.00
2023-01-19T12:46:49.983Z,5.68
2023-01-19T12:49:24.997Z,6.68
2023-01-19T12:52:11.527Z,7.07
2023-01-19T12:54:43.520Z,5.97
2023-01-19T12:57:21.885Z,5.13
2023-01-19T12:59:57.552Z,5.47
2023-01-19T13:02:53.657Z,4.85
2023-01-19T13:05:53.485Z,5.35
2023-01-19T13:08:31.200Z,4.65
2023-01-19T13:11:21.238Z,7.45
2023-01-19T13:14:27.197Z,5.35
2023-01-19T13:17:05.095Z,4.78
2023-01-19T13:19:50.383Z,5.22
2023-01-19T13:22:53.150Z,5.63
2023-01-19T13:25:31.594Z,6.47
2023-01-19T13:27:59.623Z,7.22
2023-01-19T13:30:30.442Z,7.05
2023-01-19T13:33:07.226Z,5.97
2023-01-19T13:35:35.315Z,7.93
2023-01-19T13:38:04.138Z,8.07
2023-01-19T13:40:39.231Z,10.50
2023-01-19T13:43:16.275Z,6.35
2023-01-19T13:45:51.141Z,5.70
2023-01-19T13:48:22.199Z,6.10
2023-01-19T13:51:01.581Z,6.25
2023-01-19T13:53:30.420Z,5.22
2023-01-19T13:56:21.728Z,6.18
2023-01-19T13:59:10.250Z,4.03
2023-01-19T14:01:40.050Z,6.43
2023-01-19T14:04:26.037Z,6.65
2023-01-19T14:06:55.668Z,5.35
2023-01-19T14:09:23.844Z,7.30
2023-01-19T14:12:10.715Z,7.20
2023-01-19T14:14:38.837Z,6.85
2023-01-19T14:17:23.535Z,6.68
2023-01-19T14:19:56.750Z,5.25
2023-01-19T14:22:39.214Z,6.20
2023-01-19T14:27:51.706Z,5.35
2023-01-19T14:30:25.071Z,4.65
2023-01-19T14:32:53.829Z,4.65
2023-01-19T14:35:25.973Z,6.55
2023-01-19T14:37:53.955Z,3.85
2023-01-19T14:40:24.402Z,4.53
2023-01-19T14:42:55.482Z,5.38
2023-01-19T14:45:25.894Z,7.93
2023-01-19T14:47:59.758Z,5.32
2023-01-19T14:50:30.586Z,5.78
2023-01-19T14:53:02.953Z,6.60
2023-01-19T14:55:37.180Z,4.00
2023-01-19T14:58:12.276Z,5.93
2023-01-19T15:00:40.322Z,4.70
2023-01-19T15:03:09.812Z,5.47
2023-01-19T15:05:37.937Z,6.75
2023-01-19T15:08:06.849Z,4.70
2023-01-19T15:10:36.928Z,5.25
2023-01-19T15:13:05.574Z,4.75
2023-01-19T15:15:36.139Z,6.60
2023-01-19T15:18:05.813Z,5.72
2023-01-19T15:20:33.654Z,4.82
2023-01-19T15:23:01.496Z,4.97
2023-01-19T15:25:30.774Z,4.00
2023-01-19T15:28:00.122Z,6.43
2023-01-19T15:30:30.848Z,6.22
2023-01-19T15:33:00.341Z,7.65
2023-01-19T15:35:28.202Z,5.88
2023-01-19T15:37:56.124Z,5.38
2023-01-19T15:40:23.987Z,5.32
2023-01-19T15:42:51.857Z,4.20
2023-01-19T15:45:33.670Z,4.82
2023-01-19T15:48:05.316Z,4.50
2023-01-19T15:50:34.245Z,6.72
2023-01-19T15:53:02.186Z,5.00
2023-01-19T15:55:30.054Z,6.28
2023-01-19T15:58:01.573Z,5.30
2023-01-19T16:00:30.447Z,6.13
2023-01-19T16:02:58.809Z,4.97
2023-01-19T16:05:41.937Z,7.43
2023-01-19T16:08:10.927Z,4.72
2023-01-19T16:10:38.941Z,7.20
2023-01-19T16:13:06.842Z,6.32
2023-01-19T16:15:36.020Z,10.52
2023-01-19T16:18:05.027Z,8.85
2023-01-19T16:20:34.218Z,6.95
2023-01-19T16:23:14.474Z,6.35
2023-01-19T16:25:43.316Z,9.13
2023-01-19T16:28:11.189Z,7.55
2023-01-19T16:30:39.089Z,6.70
2023-01-19T16:33:08.330Z,7.75
2023-01-19T16:35:37.580Z,6.45
2023-01-19T16:38:05.432Z,5.55
2023-01-19T16:40:33.295Z,6.32
2023-01-19T16:43:01.160Z,9.73
2023-01-19T16:45:28.988Z,7.32
2023-01-19T16:47:56.887Z,6.15
2023-01-19T16:50:24.756Z,6.40
2023-01-19T16:52:57.535Z,5.85
2023-01-19T16:55:25.475Z,5.45
2023-01-19T16:57:53.442Z,9.45
2023-01-19T17:00:21.800Z,8.57
2023-01-19T17:02:49.656Z,9.82
2023-01-19T17:05:17.634Z,11.98
2023-01-19T17:07:45.496Z,9.73
2023-01-19T17:10:14.718Z,8.15
2023-01-19T17:12:42.585Z,12.80
2023-01-19T17:15:11.120Z,7.65
2023-01-19T17:17:38.992Z,7.90
2023-01-19T17:20:07.970Z,7.82
2023-01-19T17:22:35.830Z,8.23
2023-01-19T17:25:03.843Z,6.93
2023-01-19T17:27:33.050Z,9.65
2023-01-19T17:30:00.918Z,7.75
2023-01-19T17:32:28.806Z,10.27
2023-01-19T17:34:56.679Z,10.07
2023-01-19T17:37:24.565Z,10.30
2023-01-19T17:39:52.408Z,7.93
2023-01-19T17:42:20.275Z,7.93
2023-01-19T17:44:49.500Z,9.60
2023-01-19T17:47:17.339Z,8.35
2023-01-19T17:49:45.151Z,13.82
2023-01-19T17:52:12.992Z,11.02
2023-01-19T17:54:42.364Z,11.82
2023-01-19T17:57:10.200Z,10.55
2023-01-19T17:59:40.899Z,14.02
2023-01-19T18:02:11.297Z,9.50
2023-01-19T18:04:39.539Z,10.20
2023-01-19T18:07:07.450Z,8.85
2023-01-19T18:09:35.287Z,9.90
2023-01-19T18:12:03.141Z,8.60
2023-01-19T18:14:31.015Z,7.85
2023-01-19T18:16:58.869Z,8.25
2023-01-19T18:19:28.787Z,10.30
2023-01-19T18:21:57.202Z,7.43
2023-01-19T18:24:25.627Z,7.75
2023-01-19T18:26:55.685Z,8.95
2023-01-19T18:29:23.691Z,9.82
2023-01-19T18:31:51.536Z,8.88
2023-01-19T18:34:19.435Z,9.95
2023-01-19T18:36:48.647Z,11.30
2023-01-19T18:39:16.527Z,7.68
2023-01-19T18:41:44.367Z,6.93
2023-01-19T18:44:13.090Z,8.85
2023-01-19T18:46:41.053Z,11.05
2023-01-19T18:49:09.652Z,10.85
2023-01-19T18:51:39.443Z,15.77
2023-01-19T18:54:08.981Z,10.05
2023-01-19T18:56:36.819Z,6.50
2023-01-19T18:59:05.009Z,6.20
2023-01-19T19:01:35.082Z,6.63
2023-01-19T19:04:03.608Z,9.27
2023-01-19T19:06:31.444Z,7.25
2023-01-19T19:09:00.143Z,8.45
2023-01-19T19:11:29.551Z,10.85
2023-01-19T19:13:59.230Z,8.35
2023-01-19T19:16:27.719Z,8.48
2023-01-19T19:18:55.675Z,8.85
2023-01-19T19:21:25.194Z,9.07
2023-01-19T19:23:54.178Z,8.35
2023-01-19T19:26:22.590Z,7.75
2023-01-19T19:28:51.825Z,6.85
2023-01-19T19:31:21.375Z,6.97
2023-01-19T19:33:50.999Z,7.22
2023-01-19T19:36:27.050Z,9.30
2023-01-19T19:38:54.970Z,9.52
2023-01-19T19:41:26.839Z,8.75
2023-01-19T19:43:56.667Z,6.63
2023-01-19T19:46:25.320Z,9.00
2023-01-19T19:48:54.349Z,7.03
2023-01-19T19:51:23.751Z,8.38
2023-01-19T19:53:53.115Z,8.05
2023-01-19T19:56:22.616Z,7.00
2023-01-19T19:58:51.303Z,10.70
2023-01-19T20:01:24.688Z,7.78
2023-01-19T20:03:54.745Z,7.32
2023-01-19T20:06:24.250Z,10.57
2023-01-19T20:08:53.684Z,8.15
2023-01-19T20:11:24.528Z,6.90
2023-01-19T20:14:16.234Z,7.75
2023-01-19T20:16:45.724Z,7.13
2023-01-19T20:19:13.697Z,7.45
2023-01-19T20:21:42.846Z,6.15
2023-01-19T20:24:14.629Z,9.07
2023-01-19T20:26:44.521Z,7.70
2023-01-19T20:29:12.647Z,9.25
2023-01-19T20:31:43.644Z,11.40
2023-01-19T20:34:15.668Z,9.27
2023-01-19T20:36:44.275Z,9.60
2023-01-19T20:39:12.698Z,9.80
2023-01-19T20:41:44.988Z,11.48
2023-01-19T20:44:14.024Z,13.30
2023-01-19T20:46:42.196Z,11.70
2023-01-19T20:49:10.427Z,8.90
2023-01-19T20:51:43.237Z,11.35
2023-01-19T20:54:11.591Z,11.27
2023-01-19T20:56:41.162Z,10.43
2023-01-19T20:59:09.301Z,12.00
2023-01-19T21:01:37.290Z,10.15
2023-01-19T21:04:05.574Z,8.32
2023-01-19T21:06:33.699Z,8.18
2023-01-19T21:09:02.947Z,8.88
2023-01-19T21:11:30.807Z,8.30
2023-01-19T21:13:58.677Z,9.20
2023-01-19T21:16:28.353Z,9.32
2023-01-19T21:18:56.365Z,9.23
2023-01-19T21:21:30.892Z,10.60
2023-01-19T21:24:00.226Z,8.68
2023-01-19T21:26:30.711Z,9.95
2023-01-19T21:28:59.052Z,11.45
2023-01-19T21:31:28.183Z,8.52
2023-01-19T21:33:56.615Z,8.75
2023-01-19T21:36:24.816Z,8.68
2023-01-19T21:38:55.345Z,10.15
2023-01-19T21:41:23.161Z,10.00
2023-01-19T21:43:52.319Z,10.95
2023-01-19T21:46:21.904Z,10.57
2023-01-19T21:48:49.760Z,11.27
2023-01-19T21:51:17.574Z,9.65
2023-01-19T21:53:45.378Z,11.02
2023-01-19T21:56:13.309Z,9.27
2023-01-19T21:58:41.087Z,8.93
2023-01-19T22:01:10.976Z,9.00
2023-01-19T22:03:38.883Z,9.50
2023-01-19T22:06:08.098Z,10.63
2023-01-19T22:08:36.819Z,11.50
2023-01-19T22:11:05.969Z,9.32
2023-01-19T22:13:34.005Z,10.70
2023-01-19T22:16:02.436Z,11.65
2023-01-19T22:18:31.780Z,9.20
2023-01-19T22:21:09.082Z,10.88
2023-01-19T22:23:37.191Z,9.70
2023-01-19T22:26:05.737Z,10.57
2023-01-19T22:28:34.032Z,10.48
2023-01-19T22:31:06.824Z,10.68
2023-01-19T22:33:36.025Z,13.02
2023-01-19T22:36:11.546Z,15.57
2023-01-19T22:38:40.179Z,14.32
2023-01-19T22:41:16.167Z,10.75
2023-01-19T22:43:44.762Z,10.60
2023-01-19T22:46:12.586Z,10.85
2023-01-19T22:48:41.690Z,8.18
2023-01-19T22:51:09.844Z,9.00
2023-01-19T22:53:37.695Z,8.52
2023-01-19T22:56:13.528Z,8.57
2023-01-19T22:58:44.076Z,9.75
2023-01-19T23:01:13.615Z,8.90
2023-01-19T23:03:43.252Z,9.32
2023-01-19T23:06:13.316Z,8.98
2023-01-19T23:08:41.962Z,10.45
2023-01-19T23:11:11.530Z,7.57
2023-01-19T23:13:39.701Z,7.53
2023-01-19T23:16:08.846Z,8.73
2023-01-19T23:18:37.124Z,8.70
2023-01-19T23:21:07.258Z,8.38
2023-01-19T23:23:35.371Z,12.48
2023-01-19T23:26:03.916Z,7.63
2023-01-19T23:28:31.724Z,9.60
2023-01-19T23:30:59.615Z,11.25
2023-01-19T23:33:44.994Z,10.80
2023-01-19T23:36:15.018Z,11.43
2023-01-19T23:38:43.581Z,11.07
2023-01-19T23:41:11.418Z,10.95
2023-01-19T23:43:39.266Z,12.20
2023-01-19T23:46:09.614Z,14.68
2023-01-19T23:48:38.054Z,12.15
2023-01-19T23:51:10.221Z,10.73
2023-01-19T23:56:11.398Z,14.52
2023-01-19T23:58:39.526Z,13.75
